Time;durP1;ratioP1;P1;durP2;ratioP2;P2;SDS_P1;SDS_P2;PMS_P1;PMS_P2;Temp;Humidity;BMP_temperature;BMP_pressure;BME280_temperature;BME280_humidity;BME280_pressure;Samples;Min_cycle;Max_cycle;Signal;HPM_P1;HPM_P2
2021/10/25 00:01:45;;;;;;;9.90;3.67;;;17.80;66.30;;;;;;5038501;28;20017;-72
2021/10/25 00:04:12;;;;;;;12.73;4.28;;;17.70;65.80;;;;;;5034323;28;20400;-69
2021/10/25 00:06:38;;;;;;;11.90;3.88;;;17.70;65.80;;;;;;5038472;28;20423;-69
2021/10/25 00:09:05;;;;;;;11.38;4.00;;;17.70;65.50;;;;;;5031311;28;20469;-71
2021/10/25 00:11:32;;;;;;;13.77;3.88;;;17.70;65.50;;;;;;5035010;28;20014;-67
2021/10/25 00:13:58;;;;;;;11.35;3.88;;;17.60;65.30;;;;;;5033505;28;20028;-67
2021/10/25 00:16:25;;;;;;;12.25;4.22;;;17.60;65.30;;;;;;5035594;28;20021;-69
2021/10/25 00:18:51;;;;;;;14.50;3.83;;;17.70;65.40;;;;;;5037390;28;20063;-69
2021/10/25 00:21:18;;;;;;;11.23;3.42;;;17.60;65.30;;;;;;5031825;28;20022;-68
2021/10/25 00:23:45;;;;;;;13.35;3.20;;;17.70;65.30;;;;;;5031759;28;20025;-68
2021/10/25 00:26:12;;;;;;;10.75;3.95;;;17.60;65.30;;;;;;5036884;28;20684;-73
2021/10/25 00:28:38;;;;;;;15.60;3.95;;;17.60;65.30;;;;;;5038934;28;20044;-71
2021/10/25 00:31:05;;;;;;;13.82;3.33;;;17.60;65.20;;;;;;5038247;28;20029;-69
2021/10/25 00:33:31;;;;;;;14.30;3.83;;;17.60;65.30;;;;;;5043057;28;20028;-71
2021/10/25 00:35:58;;;;;;;15.55;4.38;;;17.60;65.50;;;;;;5034938;28;20013;-72
2021/10/25 00:38:24;;;;;;;13.35;4.78;;;17.50;65.50;;;;;;5036169;28;20013;-69
2021/10/25 00:40:51;;;;;;;21.98;5.53;;;17.50;65.50;;;;;;5035652;28;20751;-72
2021/10/25 00:43:18;;;;;;;17.58;4.93;;;17.50;65.40;;;;;;5026741;28;20014;-70
2021/10/25 00:45:44;;;;;;;13.13;4.20;;;17.50;65.10;;;;;;5034394;28;20025;-69
2021/10/25 00:48:11;;;;;;;16.63;5.35;;;17.40;64.90;;;;;;5036813;28;20415;-71
2021/10/25 00:50:39;;;;;;;11.82;3.70;;;17.40;65.00;;;;;;5031772;28;20028;-70
2021/10/25 00:53:08;;;;;;;12.93;4.28;;;17.30;64.90;;;;;;5031262;28;20384;-72
2021/10/25 00:55:39;;;;;;;9.90;3.53;;;17.30;64.90;;;;;;5041656;28;20017;-71
2021/10/25 00:58:07;;;;;;;15.65;5.63;;;17.30;64.90;;;;;;5029690;28;20020;-72
2021/10/25 01:00:35;;;;;;;12.18;3.58;;;17.20;64.80;;;;;;5038584;28;20009;-68
2021/10/25 01:03:02;;;;;;;14.30;4.68;;;17.20;65.00;;;;;;5038907;28;20025;-70
2021/10/25 01:05:30;;;;;;;14.02;4.00;;;17.20;65.20;;;;;;5042535;28;20055;-67
2021/10/25 01:07:56;;;;;;;11.82;3.30;;;17.20;65.30;;;;;;5037299;28;20027;-72
2021/10/25 01:10:24;;;;;;;13.52;3.25;;;17.20;66.00;;;;;;5040375;28;20021;-72
2021/10/25 01:12:52;;;;;;;14.60;4.70;;;17.10;66.60;;;;;;5037079;28;20005;-69
2021/10/25 01:15:19;;;;;;;22.17;4.13;;;17.20;67.20;;;;;;5037733;28;20018;-73
2021/10/25 01:17:52;;;;;;;16.25;3.60;;;17.20;68.00;;;;;;5037724;28;20024;-69
2021/10/25 01:20:18;;;;;;;18.40;4.30;;;17.20;68.60;;;;;;5030182;28;20018;-69
2021/10/25 01:22:45;;;;;;;15.95;5.05;;;17.10;69.30;;;;;;5039281;28;20472;-72
2021/10/25 01:25:11;;;;;;;19.08;5.85;;;17.20;69.70;;;;;;5041664;28;20060;-71
2021/10/25 01:27:38;;;;;;;13.57;4.18;;;17.10;70.20;;;;;;5038420;28;20530;-68
2021/10/25 01:30:05;;;;;;;17.33;4.60;;;17.10;70.50;;;;;;5040723;28;20503;-71
2021/10/25 01:32:32;;;;;;;15.05;5.10;;;17.10;70.60;;;;;;5042462;28;20013;-70
2021/10/25 01:34:59;;;;;;;20.00;5.55;;;17.10;70.80;;;;;;5042607;28;20026;-68
2021/10/25 01:37:26;;;;;;;17.10;5.35;;;17.10;71.10;;;;;;5037765;28;20021;-69
2021/10/25 01:39:52;;;;;;;20.27;4.30;;;17.10;71.20;;;;;;5039509;28;20354;-73
2021/10/25 01:42:20;;;;;;;16.17;5.13;;;17.10;71.20;;;;;;5039619;28;20022;-69
2021/10/25 01:44:46;;;;;;;22.50;4.80;;;17.10;71.00;;;;;;5030317;28;20096;-73
2021/10/25 01:47:13;;;;;;;18.70;3.95;;;17.10;70.80;;;;;;5028734;28;20069;-71
2021/10/25 01:49:39;;;;;;;19.55;5.03;;;17.10;70.60;;;;;;5041535;28;20362;-74
2021/10/25 01:52:07;;;;;;;22.52;5.82;;;17.10;70.50;;;;;;5028637;28;20029;-72
2021/10/25 01:54:33;;;;;;;12.15;4.35;;;17.10;70.50;;;;;;5038490;28;20017;-70
2021/10/25 01:56:59;;;;;;;16.23;4.50;;;17.10;70.10;;;;;;5037723;28;20025;-68
2021/10/25 01:59:26;;;;;;;12.85;3.65;;;17.10;70.20;;;;;;5035034;28;20093;-73
2021/10/25 02:01:52;;;;;;;13.48;3.78;;;17.00;69.90;;;;;;5032463;28;20487;-71
2021/10/25 02:04:19;;;;;;;19.40;3.85;;;17.00;69.80;;;;;;5035908;28;20427;-71
2021/10/25 02:06:46;;;;;;;12.85;3.80;;;17.00;69.50;;;;;;5040956;28;20366;-74
2021/10/25 02:09:12;;;;;;;13.70;3.28;;;17.00;69.40;;;;;;5030213;28;20018;-68
2021/10/25 02:11:38;;;;;;;9.18;3.83;;;17.00;69.40;;;;;;5039854;28;20017;-73
2021/10/25 02:14:05;;;;;;;13.68;3.60;;;17.00;69.20;;;;;;5035348;28;20021;-71
2021/10/25 02:16:32;;;;;;;14.13;4.07;;;17.00;68.40;;;;;;5039633;28;20064;-72
2021/10/25 02:18:58;;;;;;;14.02;4.65;;;17.00;67.60;;;;;;5034256;28;20097;-71
2021/10/25 02:21:25;;;;;;;12.95;4.38;;;17.00;67.00;;;;;;5036203;28;20052;-73
2021/10/25 02:23:51;;;;;;;17.13;3.50;;;16.90;66.60;;;;;;5036386;28;20013;-69
2021/10/25 02:26:18;;;;;;;16.85;3.78;;;16.90;66.70;;;;;;5040845;28;20136;-73
2021/10/25 02:28:44;;;;;;;14.15;4.10;;;17.00;67.10;;;;;;5044509;28;20021;-73
2021/10/25 02:31:11;;;;;;;16.08;3.63;;;17.00;67.90;;;;;;5039506;28;20017;-68
2021/10/25 02:33:38;;;;;;;16.45;5.35;;;17.00;68.40;;;;;;5036781;28;20024;-67
2021/10/25 02:36:07;;;;;;;14.20;4.65;;;17.10;68.80;;;;;;5035299;28;20397;-69
2021/10/25 02:38:35;;;;;;;18.65;4.03;;;17.10;69.30;;;;;;5038897;28;20064;-70
2021/10/25 02:41:03;;;;;;;13.77;3.80;;;17.00;69.40;;;;;;5033996;28;20026;-73
2021/10/25 02:43:30;;;;;;;14.70;3.85;;;17.00;69.70;;;;;;5037709;28;20590;-68
2021/10/25 02:45:57;;;;;;;23.40;5.72;;;17.00;70.10;;;;;;5026789;28;20037;-69
2021/10/25 02:48:25;;;;;;;18.55;3.75;;;17.00;70.40;;;;;;5042774;28;20472;-72
2021/10/25 02:50:52;;;;;;;19.23;6.30;;;17.00;70.50;;;;;;5038779;28;20108;-70
2021/10/25 02:53:20;;;;;;;13.43;3.92;;;17.00;70.60;;;;;;5038494;28;20512;-67
2021/10/25 02:55:47;;;;;;;14.52;5.85;;;17.00;70.70;;;;;;5033479;28;20021;-67
2021/10/25 02:58:14;;;;;;;18.75;4.43;;;17.00;70.80;;;;;;5031653;28;20109;-66
2021/10/25 03:00:42;;;;;;;14.10;6.88;;;16.90;71.10;;;;;;5041763;28;20153;-68
2021/10/25 03:03:09;;;;;;;18.17;5.22;;;16.90;71.50;;;;;;5034803;28;20067;-67
2021/10/25 03:05:36;;;;;;;19.58;4.72;;;16.90;71.80;;;;;;5036649;28;20526;-66
2021/10/25 03:08:03;;;;;;;13.77;4.50;;;16.90;71.90;;;;;;5032062;28;20481;-70
2021/10/25 03:10:29;;;;;;;18.20;5.30;;;16.90;72.10;;;;;;5034558;28;20121;-69
2021/10/25 03:12:57;;;;;;;20.90;4.47;;;16.90;72.10;;;;;;5032350;28;20036;-70
2021/10/25 03:15:23;;;;;;;19.35;5.80;;;16.80;72.00;;;;;;5033333;28;20032;-69
2021/10/25 03:17:50;;;;;;;14.95;4.82;;;16.90;72.00;;;;;;5038343;28;20032;-72
2021/10/25 03:20:17;;;;;;;22.13;4.65;;;16.80;71.80;;;;;;5027473;28;20032;-72
2021/10/25 03:22:44;;;;;;;21.33;4.68;;;16.80;71.40;;;;;;5036962;28;20110;-66
2021/10/25 03:25:10;;;;;;;13.82;4.45;;;16.80;70.90;;;;;;5036725;28;20034;-66
2021/10/25 03:27:38;;;;;;;13.95;3.83;;;16.80;69.80;;;;;;5046285;28;20404;-71
2021/10/25 03:30:06;;;;;;;11.85;4.05;;;16.80;69.10;;;;;;5040356;28;20028;-67
2021/10/25 03:32:32;;;;;;;16.33;5.65;;;16.80;68.10;;;;;;5037327;28;20028;-69
2021/10/25 03:34:59;;;;;;;14.15;4.10;;;16.80;67.10;;;;;;5036316;28;20021;-71
2021/10/25 03:37:26;;;;;;;13.32;3.67;;;16.80;66.90;;;;;;5037860;28;20025;-71
2021/10/25 03:39:53;;;;;;;35.55;18.38;;;16.80;66.80;;;;;;5028773;28;20049;-69
2021/10/25 03:42:26;;;;;;;27.67;14.80;;;16.80;66.60;;;;;;5026348;28;20025;-72
2021/10/25 03:46:01;;;;;;;12.88;4.20;;;16.80;66.50;;;;;;5033869;28;20057;-67
2021/10/25 03:47:55;;;;;;;17.40;4.05;;;16.70;66.40;;;;;;5030358;28;20044;-72
2021/10/25 03:50:29;;;;;;;17.90;4.60;;;16.60;66.70;;;;;;5029647;28;20026;-74
2021/10/25 03:55:40;;;;;;;;;;;16.40;67.00;;;;;;5028729;28;20088;-78
2021/10/25 04:27:58;;;;;;;13.82;4.07;;;16.70;68.90;;;;;;5027273;28;20048;-67
2021/10/25 04:30:28;;;;;;;20.30;4.25;;;16.70;69.40;;;;;;5036221;28;20021;-70
2021/10/25 04:32:54;;;;;;;14.50;4.60;;;16.70;69.60;;;;;;5036600;28;20013;-75
2021/10/25 04:35:20;;;;;;;12.48;3.58;;;16.80;69.80;;;;;;5038684;28;20097;-73
2021/10/25 04:37:47;;;;;;;16.02;3.80;;;16.80;70.60;;;;;;5038437;28;20020;-71
2021/10/25 04:40:14;;;;;;;23.13;4.50;;;16.80;69.70;;;;;;5033296;28;20495;-70
2021/10/25 04:42:41;;;;;;;14.65;4.22;;;16.80;69.40;;;;;;5039917;28;20469;-68
2021/10/25 04:45:08;;;;;;;12.25;3.33;;;16.80;68.40;;;;;;5033327;28;20472;-72
2021/10/25 04:47:35;;;;;;;7.95;3.35;;;16.80;67.70;;;;;;5039914;28;20488;-73
2021/10/25 04:50:03;;;;;;;15.00;3.95;;;16.80;67.00;;;;;;5041541;28;20021;-73
2021/10/25 04:52:29;;;;;;;19.05;3.80;;;16.80;66.90;;;;;;5042620;28;20018;-74
2021/10/25 04:54:56;;;;;;;9.65;3.47;;;16.80;66.30;;;;;;5038318;28;20024;-70
2021/10/25 04:57:23;;;;;;;14.85;4.50;;;16.80;65.40;;;;;;5037054;28;20021;-74
2021/10/25 04:59:50;;;;;;;10.73;3.42;;;16.80;64.70;;;;;;5027540;28;20030;-74
2021/10/25 05:02:16;;;;;;;13.38;2.83;;;16.80;64.00;;;;;;5036141;28;20468;-67
2021/10/25 05:04:43;;;;;;;15.65;3.15;;;16.80;64.10;;;;;;5045877;28;20022;-74
2021/10/25 05:07:10;;;;;;;9.77;3.50;;;16.90;64.30;;;;;;5035258;28;20500;-73
2021/10/25 05:09:37;;;;;;;14.27;3.90;;;16.90;65.00;;;;;;5036754;28;20059;-74
2021/10/25 05:12:04;;;;;;;17.30;3.92;;;17.00;67.20;;;;;;5036587;28;20036;-74
2021/10/25 05:14:31;;;;;;;12.55;4.38;;;17.00;68.30;;;;;;5032412;28;20056;-69
2021/10/25 05:16:58;;;;;;;14.95;4.32;;;17.10;69.00;;;;;;5034141;28;20029;-74
2021/10/25 05:19:24;;;;;;;11.55;4.80;;;17.10;69.70;;;;;;5033351;28;20028;-72
2021/10/25 05:21:51;;;;;;;15.43;4.47;;;17.10;70.20;;;;;;5032630;28;20017;-74
2021/10/25 05:24:17;;;;;;;12.95;3.55;;;17.20;70.00;;;;;;5027320;28;20079;-73
2021/10/25 05:26:44;;;;;;;13.68;4.18;;;17.20;70.00;;;;;;5038311;28;20103;-73
2021/10/25 05:29:10;;;;;;;13.90;4.22;;;17.20;69.70;;;;;;5039937;28;20025;-72
2021/10/25 05:31:37;;;;;;;16.48;3.88;;;17.30;69.20;;;;;;5040578;28;20017;-72
2021/10/25 05:34:03;;;;;;;14.05;4.00;;;17.30;68.40;;;;;;5037900;28;20469;-73
2021/10/25 05:36:30;;;;;;;17.13;5.43;;;17.40;67.60;;;;;;5036028;28;20562;-72
2021/10/25 05:38:56;;;;;;;17.35;3.83;;;17.40;67.00;;;;;;5039505;28;20148;-73
2021/10/25 05:41:25;;;;;;;12.57;3.30;;;17.40;66.60;;;;;;5032703;28;20044;-72
2021/10/25 05:43:52;;;;;;;15.88;3.88;;;17.50;65.90;;;;;;5028594;28;20021;-73
2021/10/25 05:46:18;;;;;;;17.38;4.30;;;17.50;65.00;;;;;;5028597;28;20037;-73
2021/10/25 05:48:46;;;;;;;18.33;5.07;;;17.50;64.70;;;;;;5039140;28;20049;-71
2021/10/25 05:51:52;;;;;;;13.65;3.53;;;17.60;64.30;;;;;;5040892;28;20028;-68
2021/10/25 05:54:58;;;;;;;12.50;4.05;;;17.60;63.00;;;;;;5033307;28;20009;-72
2021/10/25 05:58:05;;;;;;;13.52;5.22;;;17.70;61.60;;;;;;5036322;28;20443;-72
2021/10/25 06:01:14;;;;;;;12.10;2.85;;;17.70;61.70;;;;;;5035908;28;20056;-72
2021/10/25 06:04:21;;;;;;;11.75;3.75;;;17.80;61.60;;;;;;5036535;28;21000;-71
2021/10/25 06:07:27;;;;;;;14.10;3.00;;;17.80;61.40;;;;;;5038438;28;20035;-73
2021/10/25 06:10:33;;;;;;;14.93;3.90;;;17.90;61.40;;;;;;5039363;28;20025;-71
2021/10/25 06:13:42;;;;;;;15.15;3.90;;;17.90;60.80;;;;;;5036169;28;20009;-72
2021/10/25 06:16:52;;;;;;;10.40;3.28;;;18.00;60.90;;;;;;5028862;28;20045;-70
2021/10/25 06:19:59;;;;;;;15.45;3.85;;;18.00;61.10;;;;;;5039433;28;20021;-69
2021/10/25 06:23:05;;;;;;;14.23;3.75;;;18.10;61.10;;;;;;5041853;28;20013;-72
2021/10/25 06:26:11;;;;;;;12.40;4.18;;;18.20;60.90;;;;;;5036392;28;20016;-71
2021/10/25 06:29:17;;;;;;;10.85;3.50;;;18.20;61.00;;;;;;5040757;28;20029;-71
2021/10/25 06:32:23;;;;;;;12.82;4.10;;;18.30;62.10;;;;;;5036361;28;20021;-69
2021/10/25 06:35:30;;;;;;;13.73;3.30;;;18.40;62.00;;;;;;5042652;28;20047;-71
2021/10/25 06:38:41;;;;;;;12.25;4.28;;;18.50;62.20;;;;;;5034429;28;20142;-71
2021/10/25 06:41:47;;;;;;;16.20;3.38;;;18.50;62.20;;;;;;5035726;28;20022;-70
2021/10/25 06:44:59;;;;;;;11.07;2.85;;;18.60;61.80;;;;;;5032807;28;20886;-68
2021/10/25 06:47:25;;;;;;;11.60;4.10;;;18.70;59.80;;;;;;5038248;28;20060;-72
2021/10/25 06:49:52;;;;;;;10.82;3.55;;;18.80;59.10;;;;;;5043013;28;20507;-68
2021/10/25 06:52:19;;;;;;;12.07;3.97;;;18.90;59.30;;;;;;5038696;28;20027;-71
2021/10/25 06:54:45;;;;;;;9.70;3.80;;;18.90;59.30;;;;;;5034349;28;20036;-71
2021/10/25 06:57:12;;;;;;;14.10;3.10;;;19.00;59.10;;;;;;5035764;28;20075;-71
2021/10/25 06:59:38;;;;;;;16.27;3.83;;;19.10;59.10;;;;;;5037255;28;20009;-69
2021/10/25 07:02:05;;;;;;;10.43;2.70;;;19.20;59.20;;;;;;5031718;28;20029;-71
2021/10/25 07:04:32;;;;;;;14.27;3.40;;;19.30;59.30;;;;;;5031550;28;20490;-71
2021/10/25 07:06:58;;;;;;;9.13;3.28;;;19.40;59.50;;;;;;5033229;28;20380;-69
2021/10/25 07:09:24;;;;;;;9.82;3.50;;;19.40;59.30;;;;;;5025064;28;20017;-72
2021/10/25 07:11:51;;;;;;;10.93;3.53;;;19.50;58.80;;;;;;5040619;28;20107;-72
2021/10/25 07:14:24;;;;;;;10.07;3.35;;;19.60;58.40;;;;;;5040212;28;20021;-71
2021/10/25 07:17:03;;;;;;;14.18;3.45;;;19.60;58.10;;;;;;5032869;28;20109;-71
2021/10/25 07:19:51;;;;;;;10.38;3.35;;;19.70;57.10;;;;;;5039176;28;20014;-69
2021/10/25 07:28:06;;;;;;;12.02;3.60;;;20.00;55.60;;;;;;5039697;28;20138;-72
2021/10/25 08:06:45;;;;;;;9.27;3.88;;;21.20;53.40;;;;;;5033997;28;20045;-70
2021/10/25 08:11:50;;;;;;;12.15;3.85;;;21.30;52.20;;;;;;5040659;28;20099;-70
2021/10/25 08:14:16;;;;;;;15.80;3.05;;;21.50;52.30;;;;;;5026822;28;20021;-71
2021/10/25 08:16:49;;;;;;;12.10;2.65;;;21.60;51.80;;;;;;5034364;28;20017;-70
2021/10/25 08:19:26;;;;;;;7.53;2.88;;;21.70;51.60;;;;;;5032843;28;20024;-71
2021/10/25 08:22:01;;;;;;;8.75;3.63;;;21.80;51.10;;;;;;5028896;28;20028;-70
2021/10/25 08:24:31;;;;;;;12.15;2.70;;;21.90;50.50;;;;;;5030375;28;20112;-68
2021/10/25 08:26:58;;;;;;;8.75;2.42;;;22.00;50.10;;;;;;5025356;28;20518;-69
2021/10/25 08:29:27;;;;;;;14.98;3.38;;;22.10;50.40;;;;;;5035892;28;20475;-69
2021/10/25 08:32:01;;;;;;;10.68;3.47;;;22.20;50.60;;;;;;5036013;28;20060;-70
2021/10/25 08:39:53;;;;;;;7.60;2.47;;;22.40;49.70;;;;;;5034438;28;20397;-69
2021/10/25 08:42:26;;;;;;;19.67;3.67;;;22.40;49.00;;;;;;5035104;28;20482;-69
2021/10/25 08:45:05;;;;;;;7.55;2.30;;;22.50;48.70;;;;;;5031514;28;20021;-70
2021/10/25 08:47:34;;;;;;;13.40;2.95;;;22.50;48.60;;;;;;5033388;28;20034;-68
2021/10/25 08:50:04;;;;;;;6.30;2.65;;;22.60;47.20;;;;;;5035019;28;20014;-68
2021/10/25 08:52:31;;;;;;;8.68;3.53;;;22.70;47.80;;;;;;5033755;28;20550;-71
2021/10/25 08:55:02;;;;;;;7.85;3.03;;;22.80;48.10;;;;;;5039021;28;20025;-69
2021/10/25 08:57:29;;;;;;;6.93;2.15;;;22.90;48.10;;;;;;5035027;28;20017;-71
2021/10/25 09:00:00;;;;;;;9.45;3.35;;;23.00;48.50;;;;;;5036733;28;20077;-72
2021/10/25 09:02:30;;;;;;;8.23;3.13;;;23.10;46.90;;;;;;5035619;28;20022;-70
2021/10/25 09:05:02;;;;;;;11.10;4.05;;;23.20;46.80;;;;;;5040569;28;20021;-70
2021/10/25 09:07:29;;;;;;;11.05;3.08;;;23.30;48.20;;;;;;5041632;28;20033;-70
2021/10/25 09:09:57;;;;;;;10.85;3.00;;;23.40;47.60;;;;;;5037739;28;20010;-70
2021/10/25 09:12:30;;;;;;;13.73;2.90;;;23.50;47.60;;;;;;5028203;28;20419;-70
2021/10/25 09:14:57;;;;;;;14.93;3.78;;;23.60;47.00;;;;;;5031569;28;20357;-71
2021/10/25 09:17:24;;;;;;;9.32;2.70;;;23.60;46.50;;;;;;5031065;28;20397;-70
2021/10/25 09:19:51;;;;;;;8.30;2.85;;;23.70;46.70;;;;;;5031404;28;20498;-69
2021/10/25 09:22:20;;;;;;;8.18;3.35;;;23.80;46.40;;;;;;5027334;28;20006;-71
2021/10/25 09:24:55;;;;;;;10.88;3.65;;;23.80;45.70;;;;;;5031787;28;20094;-70
2021/10/25 09:27:28;;;;;;;;;;;24.00;44.30;;;;;;5030182;28;20396;-70
2021/10/25 09:29:57;;;;;;;8.60;2.95;;;24.10;44.70;;;;;;5033520;28;19916;-70
2021/10/25 09:32:34;;;;;;;6.32;2.55;;;24.10;44.80;;;;;;5043355;28;20030;-70
2021/10/25 09:35:05;;;;;;;12.25;3.13;;;24.20;45.00;;;;;;5037823;28;20088;-70
2021/10/25 09:37:40;;;;;;;10.50;3.03;;;24.30;45.30;;;;;;5034890;28;20068;-71
2021/10/25 09:40:14;;;;;;;14.30;3.55;;;24.40;45.30;;;;;;5033672;28;20022;-71
2021/10/25 09:45:55;;;;;;;9.73;3.70;;;24.50;44.80;;;;;;5031713;28;20270;-70
2021/10/25 09:51:08;;;;;;;7.30;2.67;;;24.60;44.30;;;;;;5033923;28;20824;-70
2021/10/25 09:53:42;;;;;;;10.02;3.03;;;24.70;44.70;;;;;;5038660;28;20021;-70
2021/10/25 09:56:14;;;;;;;9.40;2.97;;;24.70;44.40;;;;;;5036077;28;20021;-68
2021/10/25 09:58:47;;;;;;;10.98;3.55;;;24.80;44.30;;;;;;5036256;28;20021;-71
2021/10/25 10:01:15;;;;;;;9.60;3.15;;;24.80;43.30;;;;;;5037753;28;20021;-71
2021/10/25 10:03:45;;;;;;;15.52;3.85;;;24.90;43.30;;;;;;5036807;28;20527;-71
2021/10/25 10:06:12;;;;;;;12.00;3.20;;;24.90;43.30;;;;;;5035282;28;20056;-70
2021/10/25 10:08:40;;;;;;;10.18;3.75;;;25.00;43.40;;;;;;5041396;28;20016;-70
2021/10/25 10:11:08;;;;;;;13.25;5.25;;;25.00;43.40;;;;;;5034439;28;20407;-70
2021/10/25 10:13:36;;;;;;;8.45;3.10;;;25.00;42.80;;;;;;5039981;28;20026;-68
2021/10/25 10:16:05;;;;;;;9.75;2.95;;;25.10;42.80;;;;;;5034534;28;20045;-71
2021/10/25 10:18:34;;;;;;;8.57;2.80;;;25.10;42.50;;;;;;5043710;28;20020;-71
2021/10/25 10:21:02;;;;;;;6.18;2.65;;;25.20;42.60;;;;;;5031578;28;20022;-68
2021/10/25 10:23:30;;;;;;;7.55;2.85;;;25.20;43.20;;;;;;5036476;28;20018;-67
2021/10/25 10:26:03;;;;;;;11.52;3.58;;;25.30;44.30;;;;;;5026097;28;20061;-71
2021/10/25 10:28:53;;;;;;;8.32;2.53;;;25.40;43.70;;;;;;5036167;28;20037;-70
2021/10/25 10:31:27;;;;;;;9.93;3.25;;;25.50;43.70;;;;;;5034909;28;20023;-68
2021/10/25 10:33:57;;;;;;;11.52;3.30;;;25.50;42.60;;;;;;5033864;28;20075;-70
2021/10/25 10:36:30;;;;;;;12.77;3.30;;;25.60;42.60;;;;;;5034303;28;20032;-70
2021/10/25 10:39:07;;;;;;;14.00;3.80;;;25.70;43.80;;;;;;5033206;28;20480;-69
2021/10/25 10:41:52;;;;;;;15.70;3.88;;;25.70;44.50;;;;;;5033664;28;20109;-67
2021/10/25 10:44:26;;;;;;;11.10;4.43;;;25.80;44.30;;;;;;5031439;28;20469;-68
2021/10/25 10:46:59;;;;;;;14.23;3.13;;;25.90;42.90;;;;;;5033082;28;20078;-70
2021/10/25 10:49:36;;;;;;;11.68;4.18;;;25.90;43.90;;;;;;5039507;28;20025;-68
2021/10/25 10:52:28;;;;;;;10.05;3.65;;;25.90;44.00;;;;;;5037014;28;20033;-68
2021/10/25 10:55:19;;;;;;;8.43;3.58;;;26.00;44.00;;;;;;5033523;28;20086;-69
2021/10/25 10:58:11;;;;;;;12.43;3.47;;;26.10;42.80;;;;;;5035459;28;20017;-69
2021/10/25 11:00:44;;;;;;;10.00;3.22;;;26.10;42.50;;;;;;5030922;28;20013;-68
2021/10/25 11:03:18;;;;;;;12.55;3.80;;;26.20;42.90;;;;;;5026353;28;20484;-70
2021/10/25 11:05:52;;;;;;;7.93;2.77;;;26.20;42.40;;;;;;5038329;28;20013;-69
2021/10/25 11:08:21;;;;;;;8.68;3.60;;;26.30;42.60;;;;;;5041892;28;20269;-68
2021/10/25 11:10:58;;;;;;;12.25;3.00;;;26.30;42.70;;;;;;5033745;28;20010;-69
2021/10/25 11:13:27;;;;;;;10.45;2.80;;;26.30;42.20;;;;;;5031955;28;20573;-68
2021/10/25 11:16:08;;;;;;;7.53;3.10;;;26.30;42.60;;;;;;5034382;28;20752;-68
2021/10/25 11:18:55;;;;;;;9.32;3.55;;;26.40;42.60;;;;;;5036685;28;20032;-70
2021/10/25 11:21:34;;;;;;;11.35;3.80;;;26.40;43.60;;;;;;5026726;28;20128;-70
2021/10/25 11:24:13;;;;;;;10.55;3.78;;;26.50;43.90;;;;;;5029886;28;20029;-68
2021/10/25 11:26:43;;;;;;;12.45;3.75;;;26.50;44.10;;;;;;5030714;28;20420;-67
2021/10/25 11:29:09;;;;;;;8.63;3.92;;;26.60;44.20;;;;;;5031945;28;20022;-68
2021/10/25 11:31:43;;;;;;;11.45;3.50;;;26.60;44.00;;;;;;5037234;28;20032;-70
2021/10/25 11:34:21;;;;;;;8.57;3.37;;;26.60;44.70;;;;;;5033609;28;20499;-68
2021/10/25 11:37:07;;;;;;;14.57;4.30;;;26.70;44.90;;;;;;5034645;28;20114;-68
2021/10/25 11:39:39;;;;;;;16.00;3.72;;;26.70;44.50;;;;;;5031106;28;20067;-69
2021/10/25 11:42:09;;;;;;;16.05;4.65;;;26.70;44.60;;;;;;5035198;28;20084;-68
2021/10/25 11:44:37;;;;;;;13.82;4.22;;;26.70;45.20;;;;;;5037749;28;20063;-71
2021/10/25 11:47:03;;;;;;;13.35;4.32;;;26.70;45.20;;;;;;5036967;28;20025;-71
2021/10/25 11:49:35;;;;;;;11.50;3.92;;;26.70;45.80;;;;;;5033583;28;20026;-70
2021/10/25 11:52:03;;;;;;;12.95;4.90;;;26.70;45.90;;;;;;5038519;28;21255;-68
2021/10/25 11:54:29;;;;;;;19.13;4.20;;;26.80;46.20;;;;;;5037503;28;20088;-67
2021/10/25 11:56:56;;;;;;;11.40;3.72;;;26.80;46.40;;;;;;5034910;28;20179;-70
2021/10/25 11:59:23;;;;;;;11.77;3.22;;;26.80;47.40;;;;;;5032334;28;20024;-69
2021/10/25 12:01:51;;;;;;;11.25;4.20;;;26.90;48.10;;;;;;5029712;28;20021;-67
2021/10/25 12:04:19;;;;;;;14.40;4.13;;;26.90;47.20;;;;;;5040570;28;20084;-69
2021/10/25 12:06:58;;;;;;;11.05;3.92;;;26.90;47.00;;;;;;5027808;28;20033;-67
2021/10/25 12:09:32;;;;;;;19.10;5.88;;;26.90;47.30;;;;;;5036620;28;20056;-67
2021/10/25 12:12:14;;;;;;;16.77;6.20;;;26.90;48.20;;;;;;5033953;28;20017;-68
2021/10/25 12:14:44;;;;;;;13.30;4.28;;;26.90;48.90;;;;;;5034074;28;20074;-67
2021/10/25 12:17:20;;;;;;;15.55;3.95;;;27.00;48.90;;;;;;5034255;28;20357;-71
2021/10/25 12:19:47;;;;;;;10.98;3.97;;;27.00;48.70;;;;;;5029526;28;20485;-69
2021/10/25 12:22:17;;;;;;;15.32;4.72;;;26.90;47.30;;;;;;5040792;28;20102;-69
2021/10/25 12:24:47;;;;;;;19.25;4.80;;;27.00;47.30;;;;;;5033086;28;20328;-68
2021/10/25 12:27:25;;;;;;;12.95;3.90;;;26.90;47.40;;;;;;5036568;28;20050;-67
2021/10/25 12:30:10;;;;;;;13.00;4.07;;;26.90;47.50;;;;;;5032035;28;20021;-68
2021/10/25 12:32:49;;;;;;;17.42;5.07;;;27.00;48.20;;;;;;5039332;28;20013;-69
2021/10/25 12:35:16;;;;;;;13.85;4.43;;;27.00;48.40;;;;;;5030856;28;20418;-67
2021/10/25 12:37:42;;;;;;;15.20;4.88;;;27.00;48.60;;;;;;5032064;28;20025;-67
2021/10/25 12:40:20;;;;;;;19.70;4.45;;;27.00;48.80;;;;;;5037163;28;20022;-70
2021/10/25 12:42:47;;;;;;;22.17;5.15;;;27.00;49.40;;;;;;5034160;28;20057;-67
2021/10/25 12:45:19;;;;;;;13.18;4.47;;;26.90;49.30;;;;;;5030436;28;20072;-71
2021/10/25 12:47:47;;;;;;;18.40;5.28;;;27.00;49.20;;;;;;5031161;28;20067;-72
2021/10/25 12:50:16;;;;;;;15.95;4.03;;;26.90;47.30;;;;;;5033895;28;20025;-67
2021/10/25 12:52:44;;;;;;;13.35;4.90;;;27.00;48.60;;;;;;5033385;28;20052;-67
2021/10/25 12:55:11;;;;;;;14.85;4.72;;;26.90;49.50;;;;;;5038950;28;20009;-69
2021/10/25 12:57:40;;;;;;;18.70;6.03;;;26.90;50.10;;;;;;5039827;28;20483;-70
2021/10/25 13:00:15;;;;;;;20.33;6.70;;;26.90;51.00;;;;;;5039010;28;20022;-71
2021/10/25 13:02:52;;;;;;;17.05;7.10;;;26.90;51.20;;;;;;5040477;28;20499;-71
2021/10/25 13:05:24;;;;;;;15.45;5.80;;;26.90;51.40;;;;;;5038779;28;20014;-71
2021/10/25 13:07:56;;;;;;;16.33;4.68;;;26.90;50.80;;;;;;5033381;28;20037;-70
2021/10/25 13:10:28;;;;;;;13.32;5.45;;;26.80;50.90;;;;;;5041074;28;20029;-70
2021/10/25 13:12:56;;;;;;;21.75;6.50;;;26.70;51.40;;;;;;5036019;28;20022;-69
2021/10/25 13:15:24;;;;;;;25.70;6.25;;;26.50;51.80;;;;;;5034166;28;20047;-71
2021/10/25 13:17:52;;;;;;;18.33;5.93;;;26.40;52.10;;;;;;5035970;28;20028;-71
2021/10/25 13:20:21;;;;;;;18.55;5.90;;;26.30;52.70;;;;;;5034002;28;20368;-71
2021/10/25 13:22:53;;;;;;;24.20;5.05;;;26.30;53.10;;;;;;5038380;28;20039;-70
2021/10/25 13:25:20;;;;;;;19.55;5.78;;;26.20;53.20;;;;;;5036489;28;20040;-70
2021/10/25 13:27:49;;;;;;;22.85;5.13;;;26.20;53.20;;;;;;5042731;28;20036;-71
2021/10/25 13:30:17;;;;;;;15.05;5.88;;;26.20;53.30;;;;;;5032298;28;20166;-69
2021/10/25 13:32:44;;;;;;;19.58;4.88;;;26.10;52.80;;;;;;5035702;28;20484;-71
2021/10/25 13:35:12;;;;;;;25.92;6.65;;;26.00;53.30;;;;;;5030978;28;20377;-71
2021/10/25 13:37:38;;;;;;;17.20;4.30;;;26.00;53.40;;;;;;5040596;28;20010;-71
2021/10/25 13:40:08;;;;;;;14.88;5.38;;;26.00;53.70;;;;;;5042158;28;20100;-71
2021/10/25 13:42:36;;;;;;;17.88;5.07;;;25.90;53.70;;;;;;5037375;28;20029;-71
2021/10/25 13:45:05;;;;;;;15.90;6.40;;;25.70;54.00;;;;;;5036147;28;20385;-71
2021/10/25 13:47:31;;;;;;;27.63;5.90;;;25.60;54.30;;;;;;5037876;28;20109;-68
2021/10/25 13:49:57;;;;;;;15.65;4.88;;;25.60;54.90;;;;;;5041402;28;20022;-71
2021/10/25 13:52:25;;;;;;;20.10;6.35;;;25.60;54.50;;;;;;5034994;28;20539;-72
2021/10/25 13:54:53;;;;;;;20.02;4.82;;;25.60;54.40;;;;;;5038032;28;20372;-68
2021/10/25 13:57:22;;;;;;;19.00;6.43;;;25.50;54.40;;;;;;5033788;28;20030;-70
2021/10/25 13:59:49;;;;;;;18.70;6.07;;;25.60;54.40;;;;;;5039471;28;20071;-71
2021/10/25 14:02:17;;;;;;;14.48;5.25;;;25.50;54.40;;;;;;5030488;28;20018;-68
2021/10/25 14:04:49;;;;;;;15.95;5.30;;;25.50;54.60;;;;;;5032458;28;20404;-70
2021/10/25 14:07:19;;;;;;;16.35;5.25;;;25.50;54.80;;;;;;5034420;28;20354;-69
2021/10/25 14:10:00;;;;;;;18.52;5.32;;;25.50;54.90;;;;;;5038029;28;20064;-70
2021/10/25 14:13:12;;;;;;;19.98;6.22;;;25.50;55.10;;;;;;5023523;28;20021;-70
2021/10/25 14:19:06;;;;;;;;;;;25.50;54.90;;;;;;5029703;28;20032;-70
2021/10/25 14:22:12;;;;;;;140.52;20.48;;;25.50;55.00;;;;;;5027524;28;19904;-72
2021/10/25 14:24:58;;;;;;;;;;;25.60;55.10;;;;;;5033495;28;20025;-69
2021/10/25 14:28:04;;;;;;;23.67;8.15;;;25.60;55.00;;;;;;5031023;28;19923;-72
2021/10/25 14:30:52;;;;;;;;;;;25.50;55.40;;;;;;5029334;28;20056;-73
2021/10/25 14:33:58;;;;;;;28.02;14.45;;;25.70;55.60;;;;;;5035514;28;19912;-75
2021/10/25 14:36:44;;;;;;;;;;;25.70;55.20;;;;;;5028728;28;20026;-72
2021/10/25 14:54:46;;;;;;;17.45;4.57;;;25.80;54.60;;;;;;5029147;28;20079;-72